createdAt,value
2022-09-18T00:02:22.222Z,80.82
2022-09-18T00:04:49.316Z,80.73
2022-09-18T00:07:16.933Z,80.82
2022-09-18T00:09:44.600Z,80.79
2022-09-18T00:12:11.547Z,80.61
2022-09-18T00:14:38.703Z,80.60
2022-09-18T00:17:08.958Z,80.83
2022-09-18T00:19:36.071Z,80.62
2022-09-18T00:22:02.880Z,80.51
2022-09-18T00:24:29.719Z,80.88
2022-09-18T00:26:56.508Z,80.67
2022-09-18T00:29:23.360Z,80.49
2022-09-18T00:31:50.211Z,80.82
2022-09-18T00:34:17.386Z,80.69
2022-09-18T00:36:44.572Z,81.14
2022-09-18T00:39:12.227Z,81.02
2022-09-18T00:41:43.019Z,81.40
2022-09-18T00:44:41.098Z,81.40
2022-09-18T00:47:11.813Z,81.42
2022-09-18T00:49:41.879Z,81.75
2022-09-18T00:52:09.637Z,81.78
2022-09-18T00:54:40.109Z,81.22
2022-09-18T00:57:12.189Z,81.30
2022-09-18T00:59:43.143Z,81.36
2022-09-18T01:02:10.024Z,81.17
2022-09-18T01:04:36.841Z,81.20
2022-09-18T01:07:04.244Z,81.11
2022-09-18T01:09:48.363Z,81.32
2022-09-18T01:12:23.237Z,81.44
2022-09-18T01:15:12.386Z,81.44
2022-09-18T01:17:53.427Z,81.82
2022-09-18T01:20:51.376Z,81.82
2022-09-18T01:23:20.941Z,82.03
2022-09-18T01:26:11.942Z,82.01
2022-09-18T01:29:00.786Z,82.32
2022-09-18T01:31:43.413Z,82.02
2022-09-18T01:34:24.185Z,82.21
2022-09-18T01:36:58.279Z,82.26
2022-09-18T01:39:28.505Z,82.42
2022-09-18T01:42:13.486Z,82.09
2022-09-18T01:44:44.403Z,82.31
2022-09-18T01:47:15.155Z,82.20
2022-09-18T01:49:47.569Z,81.92
2022-09-18T01:52:19.644Z,81.68
2022-09-18T01:54:50.906Z,82.20
2022-09-18T01:57:24.218Z,82.40
2022-09-18T02:00:00.592Z,82.38
2022-09-18T02:02:36.553Z,82.17
2022-09-18T02:05:07.807Z,82.52
2022-09-18T02:07:55.212Z,82.79
2022-09-18T02:10:24.087Z,82.49
2022-09-18T02:12:54.335Z,82.36
2022-09-18T02:15:26.414Z,82.60
2022-09-18T02:18:05.812Z,82.51
2022-09-18T02:20:41.492Z,82.34
2022-09-18T02:23:09.544Z,82.35
2022-09-18T02:25:55.625Z,82.63
2022-09-18T02:28:25.683Z,82.83
2022-09-18T02:30:53.485Z,82.80
2022-09-18T02:33:37.214Z,82.63
2022-09-18T02:36:23.303Z,82.79
2022-09-18T02:39:18.467Z,83.13
2022-09-18T02:42:13.624Z,82.72
2022-09-18T02:44:55.438Z,82.32
2022-09-18T02:47:51.880Z,82.47
2022-09-18T02:50:42.308Z,82.78
2022-09-18T02:53:17.035Z,82.56
2022-09-18T02:55:50.073Z,82.44
2022-09-18T02:58:26.738Z,82.36
2022-09-18T03:01:01.979Z,82.45
2022-09-18T03:03:32.413Z,82.48
2022-09-18T03:06:05.520Z,82.39
2022-09-18T03:08:34.688Z,81.99
2022-09-18T03:11:03.973Z,81.84
2022-09-18T03:13:30.990Z,81.71
2022-09-18T03:15:57.861Z,81.65
2022-09-18T03:18:26.125Z,81.33
2022-09-18T03:20:55.536Z,81.09
2022-09-18T03:23:23.917Z,81.04
2022-09-18T03:25:56.902Z,80.76
2022-09-18T03:28:23.726Z,80.83
2022-09-18T03:30:52.195Z,80.60
2022-09-18T03:33:19.586Z,80.85
2022-09-18T03:35:46.345Z,81.06
2022-09-18T03:38:13.597Z,81.12
2022-09-18T03:40:47.317Z,80.77
2022-09-18T03:43:14.991Z,81.02
2022-09-18T03:45:43.422Z,81.25
2022-09-18T03:48:11.247Z,81.76
2022-09-18T03:50:38.251Z,81.66
2022-09-18T03:53:08.611Z,81.42
2022-09-18T03:55:41.440Z,81.51
2022-09-18T03:58:23.757Z,82.06
2022-09-18T04:01:06.996Z,81.96
2022-09-18T04:03:40.131Z,81.94
2022-09-18T04:06:22.584Z,82.09
2022-09-18T04:09:04.822Z,82.58
2022-09-18T04:11:37.490Z,82.81
2022-09-18T04:14:04.966Z,82.86
2022-09-18T04:16:32.653Z,82.71
2022-09-18T04:18:59.466Z,82.80
2022-09-18T04:21:27.095Z,83.02
2022-09-18T04:23:55.684Z,82.93
2022-09-18T04:26:22.469Z,83.19
2022-09-18T04:28:53.377Z,83.46
2022-09-18T04:31:20.243Z,83.55
2022-09-18T04:33:47.471Z,83.78
2022-09-18T04:36:14.450Z,84.03
2022-09-18T04:38:41.203Z,83.99
2022-09-18T04:41:08.623Z,83.85
2022-09-18T04:43:35.587Z,84.06
2022-09-18T04:46:02.491Z,83.95
2022-09-18T04:48:29.901Z,84.31
2022-09-18T04:50:59.360Z,84.25
2022-09-18T04:53:28.240Z,84.46
2022-09-18T04:55:55.855Z,84.17
2022-09-18T04:58:22.628Z,84.19
2022-09-18T05:00:53.409Z,84.00
2022-09-18T05:03:22.616Z,83.82
2022-09-18T05:05:51.225Z,83.68
2022-09-18T05:08:18.354Z,83.78
2022-09-18T05:10:45.164Z,83.46
2022-09-18T05:13:12.577Z,82.91
2022-09-18T05:15:43.437Z,82.87
2022-09-18T05:18:12.191Z,82.62
2022-09-18T05:20:39.434Z,82.71
2022-09-18T05:23:07.364Z,82.72
2022-09-18T05:25:35.901Z,82.98
2022-09-18T05:28:03.735Z,82.52
2022-09-18T05:30:37.568Z,82.41
2022-09-18T05:33:07.328Z,82.49
2022-09-18T05:35:36.449Z,82.45
2022-09-18T05:38:04.319Z,82.43
2022-09-18T05:40:34.603Z,82.35
2022-09-18T05:43:03.314Z,81.89
2022-09-18T05:45:32.168Z,81.60
2022-09-18T05:48:01.978Z,81.55
2022-09-18T05:50:31.114Z,81.75
2022-09-18T05:52:59.788Z,81.40
2022-09-18T05:55:31.778Z,81.04
2022-09-18T05:58:01.528Z,80.76
2022-09-18T06:00:30.832Z,80.45
2022-09-18T06:03:05.288Z,80.21
2022-09-18T06:05:34.453Z,79.09
2022-09-18T06:08:03.781Z,79.12
2022-09-18T06:10:30.672Z,78.95
2022-09-18T06:13:06.105Z,77.98
2022-09-18T06:15:34.447Z,77.93
2022-09-18T06:18:01.734Z,77.98
2022-09-18T06:20:28.842Z,78.10
2022-09-18T06:23:00.562Z,77.46
2022-09-18T06:25:36.551Z,77.24
2022-09-18T06:28:06.674Z,76.39
2022-09-18T06:30:35.656Z,75.30
2022-09-18T06:33:05.507Z,75.55
2022-09-18T06:35:33.792Z,75.37
2022-09-18T06:38:04.123Z,74.49
2022-09-18T06:40:38.188Z,73.65
2022-09-18T06:43:21.484Z,72.52
2022-09-18T06:45:54.049Z,72.73
2022-09-18T06:48:24.957Z,72.76
2022-09-18T06:50:53.749Z,73.13
2022-09-18T06:53:21.846Z,73.84
2022-09-18T06:55:52.332Z,73.88
2022-09-18T06:58:21.214Z,74.00
2022-09-18T07:00:51.565Z,74.45
2022-09-18T07:03:23.059Z,74.64
2022-09-18T07:06:10.383Z,74.66
2022-09-18T07:08:47.177Z,75.27
2022-09-18T07:11:19.568Z,75.40
2022-09-18T07:13:47.340Z,74.71
2022-09-18T07:16:14.525Z,74.85
2022-09-18T07:18:41.462Z,75.65
2022-09-18T07:21:10.673Z,74.94
2022-09-18T07:23:38.987Z,74.59
2022-09-18T07:26:05.973Z,74.90
2022-09-18T07:28:34.021Z,74.47
2022-09-18T07:31:06.947Z,74.55
2022-09-18T07:33:35.776Z,74.41
2022-09-18T07:36:04.973Z,74.60
2022-09-18T07:38:34.445Z,74.42
2022-09-18T07:41:02.748Z,74.18
2022-09-18T07:43:31.823Z,73.81
2022-09-18T07:45:59.533Z,74.19
2022-09-18T07:48:28.472Z,74.64
2022-09-18T07:50:58.643Z,74.18
2022-09-18T07:53:26.551Z,74.67
2022-09-18T07:55:55.985Z,74.17
2022-09-18T07:58:24.492Z,74.32
2022-09-18T08:01:02.620Z,73.36
2022-09-18T08:03:30.549Z,72.46
2022-09-18T08:06:13.087Z,72.42
2022-09-18T08:08:55.071Z,72.71
2022-09-18T08:11:36.273Z,71.37
2022-09-18T08:14:16.479Z,71.06
2022-09-18T08:16:58.480Z,70.91
2022-09-18T08:19:37.319Z,69.27
2022-09-18T08:22:19.883Z,68.93
2022-09-18T08:24:51.095Z,69.99
2022-09-18T08:27:19.330Z,68.00
2022-09-18T08:29:47.903Z,66.30
2022-09-18T08:32:16.371Z,65.57
2022-09-18T08:34:43.579Z,66.96
2022-09-18T08:37:13.640Z,67.02
2022-09-18T08:40:12.147Z,69.06
2022-09-18T08:43:00.597Z,70.57
2022-09-18T08:45:44.543Z,72.16
2022-09-18T08:48:31.340Z,71.91
2022-09-18T08:51:18.321Z,69.11
2022-09-18T08:53:51.197Z,67.81
2022-09-18T08:56:23.952Z,67.67
2022-09-18T08:59:27.511Z,65.05
2022-09-18T09:02:15.006Z,65.03
2022-09-18T09:04:43.403Z,65.21
2022-09-18T09:07:43.243Z,64.59
2022-09-18T09:10:27.381Z,62.96
2022-09-18T09:13:33.152Z,63.38
2022-09-18T09:16:13.999Z,63.86
2022-09-18T09:18:52.199Z,65.12
2022-09-18T09:21:25.346Z,66.95
2022-09-18T09:24:05.073Z,67.83
2022-09-18T09:26:55.907Z,69.05
2022-09-18T09:30:01.201Z,69.85
2022-09-18T09:32:44.624Z,71.56
2022-09-18T09:35:32.505Z,73.03
2022-09-18T09:38:19.194Z,73.91
2022-09-18T09:40:52.625Z,73.67
2022-09-18T09:43:35.476Z,73.66
2022-09-18T09:46:18.061Z,73.67
2022-09-18T09:49:16.715Z,73.33
2022-09-18T09:51:53.150Z,73.77
2022-09-18T09:54:20.705Z,73.35
2022-09-18T09:56:53.195Z,73.35
2022-09-18T09:59:52.123Z,71.29
2022-09-18T10:02:55.967Z,69.74
2022-09-18T10:05:43.674Z,69.56
2022-09-18T10:08:21.603Z,69.03
2022-09-18T10:10:57.073Z,68.91
2022-09-18T10:13:56.427Z,68.65
2022-09-18T10:16:29.710Z,69.10
2022-09-18T10:19:00.101Z,69.13
2022-09-18T10:21:34.931Z,69.65
2022-09-18T10:24:36.187Z,69.69
2022-09-18T10:27:11.608Z,69.73
2022-09-18T10:29:40.575Z,70.56
2022-09-18T10:32:13.214Z,71.57
2022-09-18T10:35:01.148Z,70.42
2022-09-18T10:37:28.628Z,69.81
2022-09-18T10:40:15.548Z,69.83
2022-09-18T10:42:43.076Z,69.40
2022-09-18T10:45:23.280Z,67.61
2022-09-18T10:48:05.121Z,67.05
2022-09-18T10:50:54.981Z,68.61
2022-09-18T10:53:30.770Z,69.14
2022-09-18T10:56:14.196Z,69.49
2022-09-18T10:58:42.978Z,67.19
2022-09-18T11:01:26.265Z,67.57
2022-09-18T11:04:06.400Z,65.16
2022-09-18T11:06:37.417Z,64.24
2022-09-18T11:09:25.047Z,63.37
2022-09-18T11:11:53.027Z,64.18
2022-09-18T11:14:26.235Z,65.37
2022-09-18T11:16:59.424Z,65.24
2022-09-18T11:19:34.261Z,65.88
2022-09-18T11:22:26.702Z,65.45
2022-09-18T11:25:15.994Z,66.43
2022-09-18T11:27:48.765Z,66.86
2022-09-18T11:30:46.954Z,67.80
2022-09-18T11:33:41.976Z,67.90
2022-09-18T11:36:13.043Z,65.95
2022-09-18T11:38:43.472Z,65.43
2022-09-18T11:41:37.677Z,64.08
2022-09-18T11:44:18.882Z,63.26
2022-09-18T11:47:10.257Z,63.91
2022-09-18T11:50:02.755Z,65.54
2022-09-18T11:52:52.995Z,63.13
2022-09-18T11:55:37.384Z,62.02
2022-09-18T11:58:15.718Z,62.39
2022-09-18T12:00:48.362Z,61.87
2022-09-18T12:03:27.801Z,62.87
2022-09-18T12:06:01.596Z,64.02
2022-09-18T12:08:31.459Z,65.95
2022-09-18T12:11:14.141Z,67.37
2022-09-18T12:13:57.009Z,70.25
2022-09-18T12:16:38.905Z,71.34
2022-09-18T12:19:10.637Z,72.46
2022-09-18T12:22:08.860Z,73.05
2022-09-18T12:24:36.043Z,73.99
2022-09-18T12:27:27.846Z,74.67
2022-09-18T12:30:06.719Z,74.83
2022-09-18T12:32:35.512Z,75.24
2022-09-18T12:35:18.123Z,75.17
2022-09-18T12:38:14.001Z,75.39
2022-09-18T12:41:13.250Z,76.37
2022-09-18T12:44:11.493Z,76.09
2022-09-18T12:46:56.158Z,75.92
2022-09-18T12:49:42.756Z,76.32
2022-09-18T12:52:27.678Z,74.62
2022-09-18T12:55:10.547Z,75.96
2022-09-18T12:57:56.817Z,74.95
2022-09-18T13:00:24.178Z,73.84
2022-09-18T13:02:56.299Z,73.98
2022-09-18T13:05:44.831Z,73.37
2022-09-18T13:08:19.725Z,73.26
2022-09-18T13:10:49.518Z,73.24
2022-09-18T13:13:32.913Z,73.00
2022-09-18T13:16:07.917Z,73.52
2022-09-18T13:18:39.202Z,73.94
2022-09-18T13:21:18.101Z,73.76
2022-09-18T13:23:46.559Z,73.97
2022-09-18T13:26:15.639Z,74.92
2022-09-18T13:28:43.921Z,74.83
2022-09-18T13:31:28.519Z,74.15
2022-09-18T13:34:00.179Z,73.71
2022-09-18T13:36:36.901Z,72.67
2022-09-18T13:39:15.990Z,73.04
2022-09-18T13:41:46.423Z,73.05
2022-09-18T13:44:19.707Z,73.34
2022-09-18T13:46:48.889Z,74.32
2022-09-18T13:49:19.750Z,74.68
2022-09-18T13:51:46.605Z,75.22
2022-09-18T13:54:19.971Z,76.30
2022-09-18T13:57:04.050Z,76.00
2022-09-18T13:59:46.932Z,76.83
2022-09-18T14:02:32.859Z,77.24
2022-09-18T14:05:18.044Z,76.79
2022-09-18T14:07:52.158Z,77.20
2022-09-18T14:10:23.839Z,77.57
2022-09-18T14:13:03.637Z,77.70
2022-09-18T14:15:31.700Z,78.09
2022-09-18T14:18:15.397Z,78.63
2022-09-18T14:20:54.365Z,78.89
2022-09-18T14:23:36.995Z,78.98
2022-09-18T14:26:37.373Z,79.15
2022-09-18T14:29:10.235Z,79.44
2022-09-18T14:31:55.556Z,79.25
2022-09-18T14:34:40.760Z,78.40
2022-09-18T14:37:24.842Z,78.36
2022-09-18T14:39:54.977Z,77.94
2022-09-18T14:42:32.603Z,78.57
2022-09-18T14:45:14.716Z,78.06
2022-09-18T14:47:58.845Z,77.82
2022-09-18T14:50:27.677Z,76.28
2022-09-18T14:52:55.609Z,76.64
2022-09-18T14:55:29.248Z,76.15
2022-09-18T14:58:02.367Z,77.11
2022-09-18T15:00:32.717Z,77.22
2022-09-18T15:03:04.469Z,77.07
2022-09-18T15:05:33.046Z,76.79
2022-09-18T15:08:04.049Z,76.65
2022-09-18T15:10:33.543Z,75.83
2022-09-18T15:13:05.587Z,75.25
2022-09-18T15:15:35.230Z,75.62
2022-09-18T15:18:03.386Z,75.90
2022-09-18T15:20:32.454Z,75.22
2022-09-18T15:23:19.422Z,74.53
2022-09-18T15:25:51.035Z,74.74
2022-09-18T15:28:19.844Z,75.04
2022-09-18T15:30:48.797Z,75.61
2022-09-18T15:33:33.607Z,75.14
2022-09-18T15:36:02.588Z,75.34
2022-09-18T15:38:41.702Z,76.32
2022-09-18T15:41:28.720Z,76.40
2022-09-18T15:43:55.531Z,76.41
2022-09-18T15:46:28.321Z,76.77
2022-09-18T15:49:12.358Z,77.45
2022-09-18T15:51:40.476Z,77.93
2022-09-18T15:54:09.428Z,78.36
2022-09-18T15:56:39.785Z,78.60
2022-09-18T15:59:16.725Z,78.80
2022-09-18T16:01:46.999Z,78.74
2022-09-18T16:04:33.167Z,78.49
2022-09-18T16:07:05.066Z,78.07
2022-09-18T16:09:36.568Z,77.98
2022-09-18T16:12:25.593Z,77.58
2022-09-18T16:15:16.719Z,76.99
2022-09-18T16:17:45.087Z,76.46
2022-09-18T16:20:30.092Z,76.14
2022-09-18T16:23:05.153Z,75.46
2022-09-18T16:25:36.197Z,75.44
2022-09-18T16:28:13.760Z,75.26
2022-09-18T16:30:42.510Z,75.19
2022-09-18T16:33:23.255Z,75.26
2022-09-18T16:35:57.125Z,75.80
2022-09-18T16:38:23.993Z,75.83
2022-09-18T16:40:50.748Z,75.97
2022-09-18T16:43:18.065Z,76.39
2022-09-18T16:45:44.800Z,76.71
2022-09-18T16:48:11.712Z,76.82
2022-09-18T16:50:38.994Z,77.35
2022-09-18T16:53:08.345Z,77.86
2022-09-18T16:55:40.128Z,78.23
2022-09-18T16:58:08.008Z,78.54
2022-09-18T17:00:37.855Z,78.80
2022-09-18T17:03:07.165Z,79.11
2022-09-18T17:05:34.824Z,79.80
2022-09-18T17:08:04.057Z,79.82
2022-09-18T17:10:32.269Z,80.06
2022-09-18T17:12:59.038Z,80.35
2022-09-18T17:15:25.799Z,80.51
2022-09-18T17:17:53.366Z,80.70
2022-09-18T17:20:20.608Z,80.99
2022-09-18T17:22:48.055Z,81.32
2022-09-18T17:25:15.454Z,81.67
2022-09-18T17:27:43.889Z,82.10
2022-09-18T17:30:12.061Z,82.46
2022-09-18T17:32:38.927Z,82.71
2022-09-18T17:35:07.910Z,83.11
2022-09-18T17:37:52.231Z,83.13
2022-09-18T17:40:19.575Z,83.27
2022-09-18T17:42:46.353Z,83.25
2022-09-18T17:45:13.255Z,83.27
2022-09-18T17:47:40.084Z,83.20
2022-09-18T17:50:07.593Z,83.14
2022-09-18T17:52:36.174Z,83.18
2022-09-18T17:55:04.018Z,83.31
2022-09-18T17:57:32.172Z,83.30
2022-09-18T17:59:59.020Z,83.37
2022-09-18T18:02:26.117Z,83.59
2022-09-18T18:04:53.083Z,83.75
2022-09-18T18:07:20.063Z,84.04
2022-09-18T18:09:46.874Z,84.14
2022-09-18T18:12:14.405Z,84.10
2022-09-18T18:14:41.813Z,82.33
2022-09-18T18:17:09.121Z,81.30
2022-09-18T18:19:35.963Z,81.44
2022-09-18T18:22:02.700Z,81.71
2022-09-18T18:24:31.156Z,81.91
2022-09-18T18:27:14.688Z,81.95
2022-09-18T18:29:42.628Z,81.77
2022-09-18T18:32:11.232Z,81.72
2022-09-18T18:34:39.398Z,81.72
2022-09-18T18:37:06.992Z,81.79
2022-09-18T18:39:33.890Z,81.85
2022-09-18T18:42:00.764Z,81.95
2022-09-18T18:44:27.734Z,81.99
2022-09-18T18:46:54.634Z,81.85
2022-09-18T18:49:21.583Z,81.95
2022-09-18T18:51:48.974Z,81.97
2022-09-18T18:54:18.060Z,81.86
2022-09-18T18:56:45.147Z,81.96
2022-09-18T18:59:17.463Z,81.77
2022-09-18T19:01:44.919Z,81.60
2022-09-18T19:04:13.952Z,81.33
2022-09-18T19:06:43.854Z,81.28
2022-09-18T19:09:17.004Z,81.33
2022-09-18T19:11:49.734Z,81.64
2022-09-18T19:14:19.569Z,81.69
2022-09-18T19:16:48.061Z,81.80
2022-09-18T19:19:32.114Z,82.17
2022-09-18T19:22:17.832Z,82.28
2022-09-18T19:24:44.807Z,82.54
2022-09-18T19:27:11.863Z,82.92
2022-09-18T19:29:54.788Z,82.81
2022-09-18T19:32:22.176Z,83.12
2022-09-18T19:35:04.407Z,83.49
2022-09-18T19:37:31.158Z,83.74
2022-09-18T19:39:57.949Z,83.89
2022-09-18T19:42:28.366Z,83.66
2022-09-18T19:45:01.696Z,83.82
2022-09-18T19:47:48.835Z,83.89
2022-09-18T19:50:23.241Z,83.79
2022-09-18T19:53:06.305Z,83.53
2022-09-18T19:55:33.509Z,83.44
2022-09-18T19:58:01.587Z,83.17
2022-09-18T20:00:28.419Z,83.04
2022-09-18T20:02:58.861Z,82.99
2022-09-18T20:05:26.989Z,82.52
2022-09-18T20:08:10.317Z,82.31
2022-09-18T20:10:39.871Z,81.83
2022-09-18T20:13:07.923Z,81.70
2022-09-18T20:16:07.154Z,81.75
2022-09-18T20:18:34.399Z,81.72
2022-09-18T20:21:08.241Z,81.85
2022-09-18T20:23:36.120Z,81.76
2022-09-18T20:26:08.015Z,81.65
2022-09-18T20:28:36.366Z,81.38
2022-09-18T20:31:05.713Z,81.39
2022-09-18T20:33:32.870Z,81.16
2022-09-18T20:36:00.641Z,81.19
2022-09-18T20:38:32.091Z,81.17
2022-09-18T20:41:03.680Z,81.27
2022-09-18T20:43:33.222Z,81.34
2022-09-18T20:46:02.504Z,81.32
2022-09-18T20:48:34.045Z,80.94
2022-09-18T20:51:06.859Z,81.17
2022-09-18T20:53:34.616Z,81.29
2022-09-18T20:56:04.796Z,81.33
2022-09-18T20:58:34.120Z,81.61
2022-09-18T21:01:13.559Z,81.60
2022-09-18T21:03:43.166Z,81.67
2022-09-18T21:06:22.444Z,81.82
2022-09-18T21:08:53.774Z,82.15
2022-09-18T21:11:26.519Z,82.16
2022-09-18T21:13:56.873Z,82.15
2022-09-18T21:16:26.393Z,82.10
2022-09-18T21:18:56.815Z,81.99
2022-09-18T21:21:25.379Z,81.89
2022-09-18T21:23:53.442Z,81.85
2022-09-18T21:26:21.314Z,81.74
2022-09-18T21:28:52.085Z,81.21
2022-09-18T21:31:19.653Z,81.15
2022-09-18T21:33:47.207Z,81.11
2022-09-18T21:36:14.187Z,81.03
2022-09-18T21:38:42.226Z,81.22
2022-09-18T21:41:09.719Z,81.40
2022-09-18T21:43:38.596Z,81.49
2022-09-18T21:46:07.229Z,81.61
2022-09-18T21:48:35.321Z,81.78
2022-09-18T21:51:04.088Z,81.80
2022-09-18T21:53:32.047Z,81.91
2022-09-18T21:56:04.380Z,82.02
2022-09-18T21:58:31.349Z,81.67
2022-09-18T22:00:58.436Z,81.71
2022-09-18T22:03:25.295Z,81.81
2022-09-18T22:05:53.115Z,81.65
2022-09-18T22:08:19.954Z,81.71
2022-09-18T22:10:46.689Z,81.71
2022-09-18T22:13:13.573Z,81.93
2022-09-18T22:15:40.294Z,81.98
2022-09-18T22:18:07.036Z,82.21
2022-09-18T22:20:36.650Z,82.02
2022-09-18T22:23:03.507Z,82.14
2022-09-18T22:25:31.105Z,82.26
2022-09-18T22:27:57.951Z,82.50
2022-09-18T22:30:24.867Z,82.53
2022-09-18T22:32:51.601Z,82.81
2022-09-18T22:35:18.636Z,83.03
2022-09-18T22:37:45.378Z,83.12
2022-09-18T22:40:12.131Z,83.20
2022-09-18T22:42:38.952Z,83.41
2022-09-18T22:45:06.217Z,83.45
2022-09-18T22:47:32.960Z,83.62
2022-09-18T22:49:59.673Z,83.73
2022-09-18T22:52:26.391Z,83.80
2022-09-18T22:54:53.227Z,83.74
2022-09-18T22:57:19.924Z,83.90
2022-09-18T22:59:46.671Z,84.01
2022-09-18T23:02:13.471Z,84.15
2022-09-18T23:04:40.980Z,84.51
2022-09-18T23:07:07.855Z,84.63
2022-09-18T23:09:34.619Z,84.62
2022-09-18T23:12:02.147Z,84.70
2022-09-18T23:14:31.297Z,84.78
2022-09-18T23:16:59.664Z,84.85
2022-09-18T23:19:29.235Z,84.95
2022-09-18T23:21:56.485Z,85.07
2022-09-18T23:24:24.813Z,84.86
2022-09-18T23:26:53.639Z,85.01
2022-09-18T23:29:23.392Z,84.97
2022-09-18T23:31:53.185Z,84.95
2022-09-18T23:34:22.579Z,85.07
2022-09-18T23:36:52.014Z,85.12
2022-09-18T23:39:22.674Z,85.22
2022-09-18T23:41:50.332Z,85.10
2022-09-18T23:44:19.049Z,85.23
2022-09-18T23:46:46.942Z,85.24
2022-09-18T23:49:15.296Z,85.17
2022-09-18T23:51:46.339Z,85.28
2022-09-18T23:54:16.916Z,85.22
2022-09-18T23:56:44.867Z,85.30
2022-09-18T23:59:12.757Z,85.19
